Time;durP1;ratioP1;P1;durP2;ratioP2;P2;SDS_P1;SDS_P2;PMS_P1;PMS_P2;Temp;Humidity;BMP_temperature;BMP_pressure;BME280_temperature;BME280_humidity;BME280_pressure;Samples;Min_cycle;Max_cycle;Signal;HPM_P1;HPM_P2
2022/02/01 00:00:30;;;;;;;7.90;5.30;;;;;;;-0.43;100.00;99933.25;1811867;78;21153;-79
2022/02/01 00:02:57;;;;;;;7.25;5.12;;;;;;;-0.48;100.00;99927.86;1745677;80;21037;-79
2022/02/01 00:05:38;;;;;;;8.30;5.28;;;;;;;-0.49;100.00;99930.48;1748506;80;21693;-81
2022/02/01 00:13:31;;;;;;;8.03;5.00;;;;;;;-0.48;100.00;99943.66;1743058;80;21150;-80
2022/02/01 00:18:34;;;;;;;8.63;5.75;;;;;;;-0.47;100.00;99949.17;1742968;80;21581;-81
2022/02/01 00:37:21;;;;;;;16.02;9.33;;;;;;;-0.59;100.00;99957.31;1743404;80;20993;-79
2022/02/01 00:39:55;;;;;;;16.60;9.05;;;;;;;-0.58;100.00;99952.59;1737835;81;21108;-80
2022/02/01 00:42:15;;;;;;;12.98;9.13;;;;;;;-0.59;100.00;99947.93;1707706;82;21006;-78
2022/02/01 00:44:42;;;;;;;17.07;9.58;;;;;;;-0.57;100.00;99943.59;1742901;81;21012;-78
2022/02/01 00:47:11;;;;;;;14.73;8.98;;;;;;;-0.56;100.00;99945.23;1742968;80;21041;-79
2022/02/01 00:49:38;;;;;;;16.02;9.35;;;;;;;-0.54;100.00;99947.29;1743227;81;21053;-78
2022/02/01 00:52:05;;;;;;;18.17;10.40;;;;;;;-0.52;100.00;99947.25;1743519;81;21115;-78
2022/02/01 00:54:32;;;;;;;21.15;10.10;;;;;;;-0.48;100.00;99948.78;1711724;82;21044;-80
2022/02/01 00:56:59;;;;;;;16.70;10.28;;;;;;;-0.48;100.00;99946.22;1711510;82;21044;-79
2022/02/01 00:59:26;;;;;;;18.12;10.95;;;;;;;-0.48;100.00;99947.50;1742880;80;21096;-77
2022/02/01 01:01:53;;;;;;;18.60;10.28;;;;;;;-0.50;100.00;99939.90;1711826;82;21063;-80
2022/02/01 01:04:21;;;;;;;19.60;10.68;;;;;;;-0.52;100.00;99945.52;1742838;80;21814;-79
2022/02/01 01:06:48;;;;;;;15.98;10.58;;;;;;;-0.54;100.00;99955.42;1763254;81;21146;-80
2022/02/01 01:09:16;;;;;;;17.67;11.28;;;;;;;-0.56;100.00;99961.04;1767088;80;21024;-79
2022/02/01 01:11:43;;;;;;;20.48;11.20;;;;;;;-0.57;100.00;99967.05;1767103;80;21022;-79
2022/02/01 01:44:24;;;;;;;20.75;10.00;;;;;;;-0.66;100.00;99987.42;1767426;80;21137;-79
2022/02/01 01:54:59;;;;;;;18.80;9.83;;;;;;;-0.56;100.00;99986.61;1767342;80;21027;-78
2022/02/01 01:57:27;;;;;;;13.62;9.35;;;;;;;-0.54;100.00;99989.49;1767323;81;21927;-79
2022/02/01 01:59:54;;;;;;;16.35;9.33;;;;;;;-0.54;100.00;99989.49;1767266;80;21119;-79
2022/02/01 02:02:21;;;;;;;17.23;10.03;;;;;;;-0.52;100.00;100000.50;1714803;81;21051;-79
2022/02/01 02:04:48;;;;;;;20.10;10.25;;;;;;;-0.50;100.00;99998.73;1767184;80;21003;-80
2022/02/01 02:07:15;;;;;;;13.32;8.28;;;;;;;-0.48;100.00;100003.31;1767194;80;21553;-80
2022/02/01 02:09:43;;;;;;;17.35;8.40;;;;;;;-0.46;100.00;100001.15;1767199;81;22010;-79
2022/02/01 02:12:17;;;;;;;13.53;8.25;;;;;;;-0.42;100.00;100009.92;1767268;81;20988;-79
2022/02/01 02:14:47;;;;;;;13.93;7.97;;;;;;;-0.42;100.00;100003.53;1763174;80;21075;-80
2022/02/01 02:17:13;;;;;;;13.03;7.95;;;;;;;-0.42;100.00;100006.09;1735955;80;21552;-79
2022/02/01 02:19:40;;;;;;;17.35;9.03;;;;;;;-0.41;100.00;100005.66;1767117;80;21063;-80
2022/02/01 02:22:09;;;;;;;14.87;8.23;;;;;;;-0.45;100.00;100006.22;1767188;80;21024;-79
2022/02/01 02:24:40;;;;;;;14.20;7.67;;;;;;;-0.46;100.00;100009.67;1767290;80;21095;-79
2022/02/01 02:27:07;;;;;;;13.88;8.50;;;;;;;-0.45;100.00;100016.89;1767388;80;21635;-82
2022/02/01 02:29:35;;;;;;;13.18;7.10;;;;;;;-0.46;100.00;100018.62;1767171;80;21565;-79
2022/02/01 02:32:04;;;;;;;18.50;8.00;;;;;;;-0.46;100.00;100022.47;1714959;81;21075;-79
2022/02/01 02:34:31;;;;;;;17.40;8.73;;;;;;;-0.45;100.00;100022.86;1740062;81;21187;-80
2022/02/01 02:37:01;;;;;;;13.53;7.37;;;;;;;-0.42;100.00;100020.62;1766951;80;21036;-80
2022/02/01 02:39:33;;;;;;;17.52;8.10;;;;;;;-0.40;100.00;100028.61;1767328;80;20992;-80
2022/02/01 02:42:28;;;;;;;17.48;9.33;;;;;;;-0.37;100.00;100027.66;1762381;80;21119;-79
2022/02/01 02:45:05;;;;;;;21.00;11.03;;;;;;;-0.36;100.00;100028.86;1735277;81;21115;-79
2022/02/01 02:47:32;;;;;;;18.27;10.53;;;;;;;-0.36;100.00;100030.14;1738978;80;21774;-79
2022/02/01 02:50:00;;;;;;;20.62;10.43;;;;;;;-0.33;100.00;100034.33;1767017;80;21603;-81
2022/02/01 02:52:27;;;;;;;14.87;9.20;;;;;;;-0.32;100.00;100036.83;1739041;80;21450;-79
2022/02/01 02:54:59;;;;;;;15.78;9.90;;;;;;;-0.35;100.00;100037.39;1767644;81;21011;-79
2022/02/01 02:57:27;;;;;;;15.43;9.10;;;;;;;-0.37;100.00;100039.17;1767279;80;21493;-79
2022/02/01 02:59:54;;;;;;;14.30;9.60;;;;;;;-0.39;100.00;100042.22;1739720;81;21800;-80
2022/02/01 03:02:21;;;;;;;18.32;10.60;;;;;;;-0.39;100.00;100044.78;1767362;80;21541;-80
2022/02/01 03:04:48;;;;;;;19.57;11.20;;;;;;;-0.40;100.00;100043.14;1767672;80;21549;-79
2022/02/01 03:07:16;;;;;;;17.45;11.28;;;;;;;-0.42;100.00;100046.20;1714479;82;21076;-80
2022/02/01 03:09:44;;;;;;;23.85;12.30;;;;;;;-0.43;100.00;100050.47;1736234;82;21046;-80
2022/02/01 03:12:17;;;;;;;20.17;12.73;;;;;;;-0.44;100.00;100050.08;1717477;82;21001;-81
2022/02/01 03:19:52;;;;;;;22.07;13.50;;;;;;;-0.49;100.00;100056.67;1736157;81;21349;-81
2022/02/01 03:22:21;;;;;;;19.80;12.18;;;;;;;-0.50;100.00;100055.44;1736553;81;21018;-80
2022/02/01 03:24:49;;;;;;;21.95;12.82;;;;;;;-0.50;100.00;100070.78;1736358;81;21843;-80
2022/02/01 03:27:18;;;;;;;23.98;13.43;;;;;;;-0.50;100.00;100077.17;1717368;82;21530;-81
2022/02/01 03:29:47;;;;;;;22.05;12.58;;;;;;;-0.52;100.00;100075.14;1717738;81;21677;-82
2022/02/01 03:32:14;;;;;;;22.90;13.22;;;;;;;-0.53;100.00;100076.03;1717465;82;21574;-80
2022/02/01 03:34:42;;;;;;;24.15;13.28;;;;;;;-0.53;100.00;100082.42;1717820;82;21065;-81
2022/02/01 03:37:09;;;;;;;22.48;14.45;;;;;;;-0.53;100.00;100080.69;1736340;81;21106;-80
2022/02/01 03:39:36;;;;;;;17.77;12.63;;;;;;;-0.56;100.00;100085.91;1736391;81;21029;-80
2022/02/01 03:42:04;;;;;;;20.85;13.25;;;;;;;-0.59;100.00;100086.47;1736153;81;21096;-80
2022/02/01 03:44:32;;;;;;;24.37;13.03;;;;;;;-0.60;100.00;100089.94;1736388;81;21025;-79
2022/02/01 03:47:02;;;;;;;23.07;11.85;;;;;;;-0.59;100.00;100097.97;1736093;81;21051;-80
2022/02/01 03:49:40;;;;;;;20.20;11.97;;;;;;;-0.59;100.00;100096.70;1736060;81;21202;-80
2022/02/01 03:52:10;;;;;;;18.32;11.25;;;;;;;-0.59;100.00;100096.27;1736162;81;21060;-80
2022/02/01 03:54:38;;;;;;;22.50;12.65;;;;;;;-0.61;100.00;100094.20;1736568;81;21638;-83
2022/02/01 03:57:08;;;;;;;17.05;10.80;;;;;;;-0.59;100.00;100101.38;1736494;81;21056;-80
2022/02/01 03:59:35;;;;;;;22.87;11.48;;;;;;;-0.56;100.00;100103.81;1736468;81;21037;-80
2022/02/01 04:02:03;;;;;;;17.02;11.10;;;;;;;-0.55;100.00;100106.76;1736399;81;21142;-80
2022/02/01 04:04:33;;;;;;;19.52;11.20;;;;;;;-0.53;100.00;100107.55;1736279;81;21085;-80
2022/02/01 04:07:02;;;;;;;15.38;10.00;;;;;;;-0.54;100.00;100109.71;1739818;81;21143;-79
2022/02/01 04:09:29;;;;;;;17.67;9.40;;;;;;;-0.53;100.00;100113.94;1767104;80;21059;-81
2022/02/01 04:12:00;;;;;;;16.23;10.28;;;;;;;-0.50;100.00;100116.39;1785067;80;21061;-80
2022/02/01 04:14:31;;;;;;;16.20;10.00;;;;;;;-0.47;100.00;100116.72;1744228;80;21099;-82
2022/02/01 04:17:00;;;;;;;16.57;11.10;;;;;;;-0.44;100.00;100118.33;1783676;78;21570;-81
2022/02/01 04:19:29;;;;;;;18.25;10.55;;;;;;;-0.41;100.00;100118.22;1782956;78;21536;-84
2022/02/01 04:24:24;;;;;;;14.73;9.63;;;;;;;-0.40;100.00;100116.88;1823004;78;21037;-81
2022/02/01 04:26:51;;;;;;;17.75;10.03;;;;;;;-0.39;100.00;100119.83;1775173;80;21774;-80
2022/02/01 04:29:18;;;;;;;13.20;9.25;;;;;;;-0.40;100.00;100118.62;1758646;80;21546;-80
2022/02/01 04:31:45;;;;;;;17.65;10.48;;;;;;;-0.38;100.00;100128.33;1756822;80;21578;-79
2022/02/01 04:34:13;;;;;;;28.42;13.45;;;;;;;-0.39;100.00;100127.93;1747704;82;21026;-78
2022/02/01 04:36:40;;;;;;;32.55;13.30;;;;;;;-0.14;100.00;100132.98;1684188;83;21077;-78
2022/02/01 04:39:08;;;;;;;17.95;10.82;;;;;;;0.36;100.00;100136.17;1747861;82;21142;-80
2022/02/01 04:41:35;;;;;;;20.85;11.28;;;;;;;0.72;100.00;100144.05;1748047;82;21066;-81
2022/02/01 04:44:03;;;;;;;22.35;11.85;;;;;;;0.80;100.00;100142.92;1747952;82;21015;-81
2022/02/01 04:46:30;;;;;;;22.30;11.10;;;;;;;0.79;100.00;100143.36;1776024;78;21089;-81
2022/02/01 04:49:00;;;;;;;24.10;13.00;;;;;;;0.71;100.00;100140.28;1767217;81;21085;-80
2022/02/01 04:51:29;;;;;;;23.57;13.10;;;;;;;0.58;100.00;100151.48;1767730;80;21491;-81
2022/02/01 04:53:57;;;;;;;39.15;19.25;;;;;;;0.45;100.00;100153.28;1767287;80;21567;-80
2022/02/01 04:56:25;;;;;;;45.92;19.50;;;;;;;0.40;100.00;100152.61;1767522;81;20991;-78
2022/02/01 04:58:52;;;;;;;43.05;20.32;;;;;;;0.39;100.00;100152.69;1767072;81;21077;-81
2022/02/01 05:01:27;;;;;;;34.67;16.80;;;;;;;0.56;100.00;100151.56;1771473;80;21009;-81
2022/02/01 05:03:48;;;;;;;30.60;16.37;;;;;;;0.60;100.00;100156.92;1776363;80;21830;-82
2022/02/01 05:06:15;;;;;;;25.20;14.53;;;;;;;0.49;100.00;100161.67;1752499;80;20986;-80
2022/02/01 05:08:43;;;;;;;28.38;14.65;;;;;;;0.37;100.00;100158.30;1784733;80;21013;-83
2022/02/01 05:11:10;;;;;;;22.10;13.03;;;;;;;0.25;100.00;100166.88;1778139;80;21112;-81
2022/02/01 05:14:25;;;;;;;30.70;14.63;;;;;;;0.18;100.00;100174.84;1785127;80;21002;-81
2022/02/01 05:16:15;;;;;;;32.80;15.00;;;;;;;0.11;100.00;100175.55;1763968;80;21147;-80
2022/02/01 05:18:47;;;;;;;35.58;15.53;;;;;;;0.08;100.00;100191.02;1783866;80;22056;-81
2022/02/01 05:21:12;;;;;;;27.45;13.40;;;;;;;0.03;100.00;100189.91;1783950;80;21005;-81
2022/02/01 05:23:37;;;;;;;32.48;16.77;;;;;;;-0.03;100.00;100183.30;1783513;80;21080;-81
2022/02/01 05:26:04;;;;;;;24.52;14.43;;;;;;;-0.04;100.00;100185.92;1784971;80;21084;-81
2022/02/01 05:28:31;;;;;;;26.57;14.58;;;;;;;-0.04;100.00;100191.86;1785140;80;21149;-80
2022/02/01 05:31:02;;;;;;;26.82;13.93;;;;;;;-0.07;100.00;100198.40;1784996;80;21081;-80
2022/02/01 05:33:27;;;;;;;28.12;13.48;;;;;;;-0.08;100.00;100194.62;1752370;80;21034;-80
2022/02/01 05:35:54;;;;;;;28.15;14.50;;;;;;;-0.09;100.00;100201.45;1785026;80;21564;-79
2022/02/01 05:38:22;;;;;;;21.82;13.10;;;;;;;-0.09;100.00;100204.02;1785070;80;22143;-80
2022/02/01 05:40:49;;;;;;;26.97;12.85;;;;;;;-0.09;100.00;100195.05;1784778;79;21123;-79
2022/02/01 05:43:23;;;;;;;21.90;11.68;;;;;;;-0.09;100.00;100198.08;1784865;79;21015;-80
2022/02/01 05:45:48;;;;;;;19.45;10.82;;;;;;;-0.07;100.00;100207.36;1769349;80;21036;-80
2022/02/01 05:48:16;;;;;;;20.05;10.65;;;;;;;-0.06;100.00;100210.31;1784032;79;21737;-80
2022/02/01 05:50:43;;;;;;;17.75;10.58;;;;;;;-0.06;100.00;100212.87;1784942;80;21550;-79
2022/02/01 05:53:11;;;;;;;19.60;9.88;;;;;;;-0.04;100.00;100225.14;1785237;80;22058;-80
2022/02/01 05:55:39;;;;;;;17.37;9.85;;;;;;;0.01;100.00;100227.99;1785271;80;21057;-80
2022/02/01 05:58:06;;;;;;;22.05;10.18;;;;;;;0.02;100.00;100230.95;1785484;80;21005;-80
2022/02/01 06:00:33;;;;;;;15.95;8.65;;;;;;;0.04;100.00;100236.85;1785328;80;21045;-80
2022/02/01 06:03:01;;;;;;;16.87;9.70;;;;;;;0.06;100.00;100230.78;1785599;80;21021;-79
2022/02/01 06:05:28;;;;;;;18.07;10.03;;;;;;;0.09;100.00;100242.16;1785359;80;21119;-79
2022/02/01 06:07:56;;;;;;;14.47;9.10;;;;;;;0.09;100.00;100234.48;1785205;80;21191;-79
2022/02/01 06:10:23;;;;;;;15.35;8.53;;;;;;;0.11;100.00;100237.01;1751245;80;21057;-79
2022/02/01 06:12:50;;;;;;;16.93;9.38;;;;;;;0.12;100.00;100235.66;1751470;80;21637;-81
2022/02/01 06:15:28;;;;;;;16.52;8.55;;;;;;;0.14;100.00;100241.56;1785241;80;21821;-84
2022/02/01 06:17:55;;;;;;;18.40;10.13;;;;;;;0.18;100.00;100244.84;1782192;80;21147;-79
2022/02/01 06:20:23;;;;;;;17.30;10.68;;;;;;;0.22;100.00;100259.19;1785230;80;20978;-80
2022/02/01 06:22:50;;;;;;;22.85;13.15;;;;;;;0.27;100.00;100258.59;1785397;80;21037;-80
2022/02/01 06:25:24;;;;;;;23.47;14.87;;;;;;;0.33;100.00;100257.95;1785300;80;20982;-81
2022/02/01 06:27:45;;;;;;;28.32;14.83;;;;;;;0.36;100.00;100255.28;1784249;80;21535;-80
2022/02/01 06:30:12;;;;;;;22.15;13.43;;;;;;;0.38;100.00;100256.89;1785307;80;21119;-79
2022/02/01 06:32:41;;;;;;;30.62;15.28;;;;;;;0.43;100.00;100261.84;1785099;80;22300;-81
2022/02/01 06:35:09;;;;;;;28.05;14.50;;;;;;;0.49;100.00;100263.30;1785108;80;21041;-79
2022/02/01 06:37:36;;;;;;;26.15;13.60;;;;;;;0.52;100.00;100268.33;1785243;80;21053;-79
2022/02/01 06:40:06;;;;;;;25.40;13.72;;;;;;;0.56;100.00;100268.61;1784774;80;21026;-80
2022/02/01 06:42:34;;;;;;;20.90;11.80;;;;;;;0.59;100.00;100272.31;1789052;78;21430;-80
2022/02/01 06:45:02;;;;;;;21.52;12.53;;;;;;;0.59;100.00;100271.03;1789645;78;21034;-80
2022/02/01 06:47:29;;;;;;;17.12;10.72;;;;;;;0.60;100.00;100258.61;1782822;80;21108;-80
2022/02/01 06:49:58;;;;;;;18.95;11.48;;;;;;;0.61;100.00;100264.13;1781999;80;21649;-82
2022/02/01 06:52:25;;;;;;;18.75;11.18;;;;;;;0.60;100.00;100270.96;1785446;80;21042;-83
2022/02/01 06:54:54;;;;;;;20.52;11.68;;;;;;;0.61;100.00;100268.79;1784217;80;21034;-80
2022/02/01 06:57:21;;;;;;;16.75;11.45;;;;;;;0.61;100.00;100266.69;1752790;80;21037;-80
2022/02/01 06:59:48;;;;;;;17.05;11.75;;;;;;;0.61;100.00;100271.35;1785206;80;21025;-80
2022/02/01 07:02:14;;;;;;;19.98;12.37;;;;;;;0.63;100.00;100267.01;1785600;80;21593;-80
2022/02/01 07:04:41;;;;;;;19.23;11.93;;;;;;;0.66;100.00;100267.79;1785315;80;21644;-80
2022/02/01 07:07:08;;;;;;;18.37;10.95;;;;;;;0.70;100.00;100268.04;1778177;80;21701;-79
2022/02/01 07:09:36;;;;;;;19.17;11.97;;;;;;;0.77;100.00;100268.19;1785129;80;21625;-80
2022/02/01 07:12:04;;;;;;;17.57;11.48;;;;;;;0.83;100.00;100269.24;1785417;80;21057;-81
2022/02/01 07:14:32;;;;;;;20.17;11.60;;;;;;;0.91;100.00;100268.91;1785199;80;21021;-80
2022/02/01 07:16:59;;;;;;;18.23;11.95;;;;;;;0.97;100.00;100270.41;1785326;80;21064;-80
2022/02/01 07:19:25;;;;;;;27.22;15.80;;;;;;;1.02;100.00;100274.45;1785305;80;21771;-79
2022/02/01 07:21:52;;;;;;;26.77;15.72;;;;;;;1.07;100.00;100278.12;1785285;80;21598;-80
2022/02/01 07:24:27;;;;;;;27.13;16.45;;;;;;;1.09;100.00;100277.16;1785107;80;21045;-80
2022/02/01 07:26:55;;;;;;;29.05;16.40;;;;;;;1.16;100.00;100276.43;1784268;80;21069;-80
2022/02/01 07:29:17;;;;;;;28.70;16.05;;;;;;;1.18;100.00;100281.05;1784133;80;21097;-80
2022/02/01 07:31:44;;;;;;;27.98;16.77;;;;;;;1.22;100.00;100276.20;1752623;80;21119;-79
2022/02/01 07:34:15;;;;;;;32.23;17.85;;;;;;;1.26;100.00;100282.86;1778257;80;21567;-80
2022/02/01 07:36:45;;;;;;;32.88;17.55;;;;;;;1.32;100.00;100285.63;1773222;80;21064;-81
2022/02/01 07:39:12;;;;;;;32.53;19.02;;;;;;;1.37;100.00;100284.97;1747815;80;21096;-80
2022/02/01 07:41:39;;;;;;;29.40;18.10;;;;;;;1.39;100.00;100284.92;1768753;79;21069;-81
2022/02/01 07:44:07;;;;;;;29.35;17.75;;;;;;;1.43;100.00;100281.31;1812214;79;21945;-80
2022/02/01 07:46:34;;;;;;;27.87;16.32;;;;;;;1.42;100.00;100280.92;1807468;79;21385;-80
2022/02/01 07:49:01;;;;;;;38.38;19.07;;;;;;;1.41;100.00;100286.95;1807807;78;21568;-79
2022/02/01 07:51:28;;;;;;;28.27;17.65;;;;;;;1.44;100.00;100288.58;1749367;81;21774;-79
2022/02/01 07:53:55;;;;;;;30.50;18.48;;;;;;;1.49;100.00;100297.73;1773717;80;21501;-80
2022/02/01 07:56:22;;;;;;;29.32;17.02;;;;;;;1.56;100.00;100311.14;1773885;80;21528;-78
2022/02/01 07:58:50;;;;;;;47.20;24.23;;;;;;;1.63;100.00;100308.70;1811926;79;20979;-79
2022/02/01 08:01:16;;;;;;;44.90;21.10;;;;;;;1.67;100.00;100315.38;1807532;79;21022;-78
2022/02/01 08:03:43;;;;;;;44.50;23.67;;;;;;;1.69;100.00;100324.30;1812161;79;21504;-80
2022/02/01 08:06:12;;;;;;;38.67;21.62;;;;;;;1.69;100.00;100325.58;1793956;78;21511;-80
2022/02/01 08:08:46;;;;;;;40.48;20.95;;;;;;;1.68;100.00;100336.74;1786715;79;21002;-81
2022/02/01 08:11:16;;;;;;;30.37;16.87;;;;;;;1.67;100.00;100338.92;1758530;78;21156;-81
2022/02/01 08:16:53;;;;;;;28.98;18.90;;;;;;;1.68;100.00;100338.84;1820486;78;21032;-78
2022/02/01 08:21:52;;;;;;;28.50;18.02;;;;;;;1.89;100.00;100333.24;1820522;78;21819;-79
2022/02/01 08:24:21;;;;;;;33.53;17.07;;;;;;;2.04;100.00;100332.22;1788892;78;21084;-79
2022/02/01 08:26:49;;;;;;;28.10;16.30;;;;;;;2.18;100.00;100338.85;1788023;80;20942;-80
2022/02/01 08:29:16;;;;;;;33.58;17.57;;;;;;;2.27;100.00;100339.34;1788672;80;20978;-79
2022/02/01 08:31:43;;;;;;;31.42;17.60;;;;;;;2.16;100.00;100340.65;1786974;79;21112;-79
2022/02/01 08:34:11;;;;;;;29.32;16.80;;;;;;;2.09;100.00;100343.11;1773613;79;21798;-79
2022/02/01 08:36:38;;;;;;;30.60;15.60;;;;;;;2.04;100.00;100347.62;1718595;79;21065;-79
2022/02/01 08:39:06;;;;;;;26.85;15.70;;;;;;;2.03;100.00;100354.48;1764600;80;21056;-80
2022/02/01 08:41:34;;;;;;;26.07;15.45;;;;;;;1.98;100.00;100355.14;1771098;80;21748;-80
2022/02/01 08:44:02;;;;;;;27.05;14.15;;;;;;;1.95;100.00;100355.27;1787312;80;21054;-80
2022/02/01 08:46:30;;;;;;;24.45;13.53;;;;;;;2.00;100.00;100364.05;1787451;80;21162;-81
2022/02/01 08:48:57;;;;;;;23.40;13.53;;;;;;;2.03;100.00;100361.36;1766634;80;21538;-81
2022/02/01 08:51:37;;;;;;;30.90;18.57;;;;;;;2.08;100.00;100357.31;1776275;80;21577;-81
2022/02/01 08:53:59;;;;;;;39.53;22.40;;;;;;;2.13;100.00;100357.94;1775037;80;21081;-80
2022/02/01 08:59:11;;;;;;;36.83;21.48;;;;;;;2.24;100.00;100345.45;1743841;80;21043;-81
2022/02/01 09:01:38;;;;;;;40.15;21.12;;;;;;;2.27;100.00;100350.91;1765010;79;20986;-79
2022/02/01 09:04:05;;;;;;;36.73;19.05;;;;;;;2.29;100.00;100344.80;1761013;80;21589;-79
2022/02/01 09:06:34;;;;;;;26.55;16.85;;;;;;;2.30;100.00;100343.05;1783171;80;21105;-79
2022/02/01 09:09:01;;;;;;;28.07;17.45;;;;;;;2.31;100.00;100348.56;1760186;80;21547;-80
2022/02/01 09:11:28;;;;;;;31.70;19.10;;;;;;;2.32;100.00;100339.50;1774348;80;21144;-79
2022/02/01 09:13:56;;;;;;;37.10;19.37;;;;;;;2.35;100.00;100339.37;1772117;80;21064;-79
2022/02/01 09:16:25;;;;;;;34.92;19.55;;;;;;;2.37;100.00;100329.01;1782162;79;21609;-79
2022/02/01 09:18:55;;;;;;;33.33;18.20;;;;;;;2.41;100.00;100328.42;1772851;80;21716;-79
2022/02/01 09:21:22;;;;;;;32.13;18.85;;;;;;;2.45;100.00;100326.92;1770630;80;21014;-78
2022/02/01 09:23:49;;;;;;;32.80;17.90;;;;;;;2.50;100.00;100324.14;1661319;79;21105;-79
2022/02/01 09:26:17;;;;;;;25.45;16.40;;;;;;;2.57;100.00;100319.10;1582526;88;21055;-78
2022/02/01 09:28:46;;;;;;;28.32;16.75;;;;;;;2.65;100.00;100320.05;1604235;87;21076;-79
2022/02/01 09:31:14;;;;;;;28.83;16.90;;;;;;;2.65;100.00;100320.05;1597258;88;21692;-78
2022/02/01 09:33:40;;;;;;;33.18;19.00;;;;;;;2.78;100.00;100331.41;1597311;88;21092;-78
2022/02/01 09:36:08;;;;;;;30.97;18.73;;;;;;;2.89;100.00;100333.47;1597375;88;21563;-77
2022/02/01 09:38:36;;;;;;;33.08;18.35;;;;;;;3.04;100.00;100335.77;1577563;88;21066;-79
2022/02/01 09:41:04;;;;;;;30.02;18.10;;;;;;;3.20;100.00;100333.73;1600577;88;21637;-79
2022/02/01 09:43:33;;;;;;;27.17;15.70;;;;;;;3.33;100.00;100333.50;1577776;88;21080;-78
2022/02/01 09:46:00;;;;;;;31.30;16.48;;;;;;;3.42;100.00;100328.37;1597841;88;21092;-77
2022/02/01 09:48:28;;;;;;;29.98;16.82;;;;;;;3.48;100.00;100334.03;1597523;88;21026;-80
2022/02/01 09:50:55;;;;;;;27.07;15.00;;;;;;;3.51;100.00;100343.37;1597802;88;21053;-82
2022/02/01 09:53:23;;;;;;;28.92;16.05;;;;;;;3.56;100.00;100335.41;1578585;88;21017;-79
2022/02/01 09:55:50;;;;;;;28.77;16.60;;;;;;;3.56;100.00;100331.55;1597665;88;21036;-80
2022/02/01 09:58:17;;;;;;;32.45;15.80;;;;;;;3.58;100.00;100326.70;1598655;88;21092;-78
2022/02/01 10:00:45;;;;;;;26.23;15.10;;;;;;;3.67;100.00;100327.96;1601229;87;21147;-80
2022/02/01 10:03:21;;;;;;;23.10;13.90;;;;;;;3.79;100.00;100327.35;1602060;88;21068;-78
2022/02/01 10:06:10;;;;;;;23.55;16.57;;;;;;;3.88;100.00;100329.08;1601657;88;21045;-78
2022/02/01 10:08:39;;;;;;;23.57;13.78;;;;;;;3.93;100.00;100323.22;1581974;88;21017;-79
2022/02/01 10:11:11;;;;;;;29.20;16.90;;;;;;;3.95;100.00;100320.12;1623345;87;21084;-80
2022/02/01 10:13:41;;;;;;;24.07;14.70;;;;;;;3.98;100.00;100312.68;1622956;87;21125;-79
2022/02/01 10:16:29;;;;;;;28.92;13.62;;;;;;;4.02;100.00;100307.28;1599319;88;21600;-79
2022/02/01 10:18:47;;;;;;;20.82;13.08;;;;;;;4.01;100.00;100297.04;1597060;88;21046;-81
2022/02/01 10:21:15;;;;;;;22.90;13.20;;;;;;;4.00;100.00;100293.64;1563854;88;21168;-81
2022/02/01 10:23:46;;;;;;;22.55;13.35;;;;;;;4.02;100.00;100281.52;1614082;87;21097;-78
2022/02/01 10:26:23;;;;;;;31.23;14.60;;;;;;;4.04;100.00;100288.72;1604739;88;21133;-77
2022/02/01 10:29:14;;;;;;;51.18;14.63;;;;;;;4.09;100.00;100282.00;1602974;88;21113;-77
2022/02/01 10:36:58;;;;;;;26.48;12.75;;;;;;;4.39;100.00;100282.10;1568797;88;21151;-78
2022/02/01 10:39:30;;;;;;;21.75;12.05;;;;;;;4.48;100.00;100280.79;1604593;87;21159;-78
2022/02/01 10:42:07;;;;;;;25.40;12.20;;;;;;;4.52;100.00;100276.30;1594746;88;21532;-79
2022/02/01 10:44:47;;;;;;;17.27;11.12;;;;;;;4.46;100.00;100277.89;1580006;89;21105;-78
2022/02/01 10:47:37;;;;;;;16.80;10.48;;;;;;;4.35;100.00;100275.47;1586874;89;21034;-80
2022/02/01 10:50:12;;;;;;;19.63;11.17;;;;;;;4.31;100.00;100273.14;1580114;89;21097;-79
2022/02/01 10:52:48;;;;;;;19.23;9.88;;;;;;;4.22;100.00;100271.88;1581230;89;21180;-79
2022/02/01 10:55:21;;;;;;;18.95;9.80;;;;;;;4.13;100.00;100277.55;1579994;89;21701;-78
2022/02/01 10:57:53;;;;;;;17.85;10.03;;;;;;;4.01;100.00;100273.41;1565723;89;21723;-78
2022/02/01 11:00:23;;;;;;;17.17;10.05;;;;;;;3.91;100.00;100280.80;1565723;89;21541;-79
2022/02/01 11:02:56;;;;;;;20.68;9.88;;;;;;;3.83;100.00;100275.22;1570370;88;21077;-77
2022/02/01 11:05:27;;;;;;;14.85;8.75;;;;;;;3.74;100.00;100275.70;1565814;89;21097;-79
2022/02/01 11:07:58;;;;;;;13.18;8.73;;;;;;;3.65;100.00;100276.98;1600574;88;21062;-80
2022/02/01 11:10:25;;;;;;;17.65;8.58;;;;;;;3.56;100.00;100277.02;1605010;88;21175;-79
2022/02/01 11:13:06;;;;;;;12.95;8.63;;;;;;;3.51;100.00;100274.29;1586662;88;21054;-79
2022/02/01 11:29:14;;;;;;;15.70;9.85;;;;;;;3.63;100.00;100273.68;1790957;77;22575;-80
2022/02/01 11:31:31;;;;;;;19.73;10.28;;;;;;;3.62;100.00;100270.25;1717726;81;21045;-80
2022/02/01 11:33:58;;;;;;;16.40;9.73;;;;;;;3.62;100.00;100268.97;1755600;80;22010;-79
2022/02/01 11:36:25;;;;;;;18.23;11.45;;;;;;;3.62;100.00;100271.55;1758592;80;21373;-80
2022/02/01 11:38:56;;;;;;;19.20;11.35;;;;;;;3.60;100.00;100272.53;1758914;80;20953;-79
2022/02/01 11:41:33;;;;;;;18.25;10.95;;;;;;;3.57;100.00;100277.83;1709648;80;21846;-78
2022/02/01 11:44:21;;;;;;;15.50;10.50;;;;;;;3.53;100.00;100284.88;1758395;80;21124;-79
2022/02/01 11:47:15;;;;;;;18.32;10.30;;;;;;;3.52;100.00;100284.97;1756281;80;21152;-80
2022/02/01 11:49:59;;;;;;;16.57;10.68;;;;;;;3.51;100.00;100280.73;1755592;81;20991;-79
2022/02/01 11:52:28;;;;;;;12.90;9.38;;;;;;;3.50;100.00;100277.33;1742362;80;21680;-80
2022/02/01 11:55:06;;;;;;;15.25;10.20;;;;;;;3.44;100.00;100276.37;1731812;80;21035;-82
2022/02/01 11:57:41;;;;;;;17.12;10.93;;;;;;;3.38;100.00;100276.22;1758809;80;21110;-80
2022/02/01 12:00:19;;;;;;;17.30;10.50;;;;;;;3.29;100.00;100274.92;1756191;80;21100;-81
2022/02/01 12:02:52;;;;;;;20.48;9.73;;;;;;;3.20;100.00;100284.84;1750948;80;21048;-79
2022/02/01 12:05:38;;;;;;;20.10;10.13;;;;;;;3.14;100.00;100277.82;1759345;81;21098;-79
2022/02/01 12:08:14;;;;;;;17.00;9.53;;;;;;;3.15;100.00;100285.92;1752244;81;21003;-79
2022/02/01 12:10:48;;;;;;;17.80;8.75;;;;;;;3.16;100.00;100279.02;1755303;81;21077;-80
2022/02/01 12:13:21;;;;;;;15.23;8.03;;;;;;;3.14;100.00;100279.11;1759171;80;21154;-80
2022/02/01 12:15:51;;;;;;;18.30;8.08;;;;;;;3.11;100.00;100276.67;1758958;81;21549;-79
2022/02/01 12:18:52;;;;;;;13.88;7.90;;;;;;;3.08;100.00;100285.00;1758943;81;21053;-78
2022/02/01 12:22:04;;;;;;;17.63;8.33;;;;;;;3.04;100.00;100285.60;1758962;81;21951;-80
2022/02/01 12:24:32;;;;;;;12.47;8.00;;;;;;;2.98;100.00;100285.91;1759401;81;21016;-78
2022/02/01 12:27:00;;;;;;;15.43;7.78;;;;;;;2.96;100.00;100287.72;1758839;80;21105;-78
2022/02/01 12:29:27;;;;;;;11.55;7.58;;;;;;;2.97;100.00;100290.67;1754960;80;20994;-80
2022/02/01 12:31:54;;;;;;;13.70;8.03;;;;;;;2.99;100.00;100297.87;1755047;81;21127;-78
2022/02/01 12:34:23;;;;;;;15.55;8.73;;;;;;;2.99;100.00;100296.58;1753359;81;21038;-79
2022/02/01 12:36:53;;;;;;;18.90;10.55;;;;;;;2.99;100.00;100301.73;1746145;80;21099;-78
2022/02/01 12:39:29;;;;;;;15.60;9.95;;;;;;;3.00;100.00;100304.69;1745972;80;21160;-80
2022/02/01 12:42:01;;;;;;;15.90;9.48;;;;;;;2.98;100.00;100294.45;1743821;82;21574;-78
2022/02/01 12:47:03;;;;;;;17.95;11.48;;;;;;;3.00;100.00;100298.25;1745807;80;21579;-78
2022/02/01 12:49:44;;;;;;;13.53;10.03;;;;;;;3.00;100.00;100296.97;1745626;82;21562;-80
2022/02/01 12:52:27;;;;;;;21.40;12.00;;;;;;;2.98;100.00;100302.16;1745470;80;21107;-78
2022/02/01 12:55:08;;;;;;;25.80;12.85;;;;;;;2.99;100.00;100299.16;1730615;82;21569;-78
2022/02/01 12:57:36;;;;;;;;;;;;;;;2.99;100.00;100299.16;1733946;82;21643;-78
2022/02/01 13:00:17;;;;;;;24.05;11.50;;;;;;;3.02;100.00;100306.70;1745793;82;20188;-79